Time;durP1;ratioP1;P1;durP2;ratioP2;P2;SDS_P1;SDS_P2;PMS_P1;PMS_P2;Temp;Humidity;BMP_temperature;BMP_pressure;BME280_temperature;BME280_humidity;BME280_pressure;Samples;Min_cycle;Max_cycle;Signal;HPM_P1;HPM_P2
2023/04/21 00:00:34;;;;;;;;;;;;;;;7.47;95.97;96806.05;108562;1274;22507;-84
2023/04/21 00:03:21;;;;;;;;;;;;;;;7.47;95.88;96803.46;108546;1282;22514;-85
2023/04/21 00:05:49;;;;;;;;;;;;;;;7.42;95.60;96804.73;108517;1274;60751;-85
2023/04/21 00:08:17;;;;;;;;;;;;;;;7.32;95.48;96799.72;108583;1282;22533;-85
2023/04/21 00:10:45;;;;;;;;;;;;;;;7.26;95.34;96799.88;108607;1278;22504;-85
2023/04/21 00:13:12;;;;;;;;;;;;;;;7.22;95.51;96792.83;108534;1274;23839;-85
2023/04/21 00:15:40;;;;;;;;;;;;;;;7.24;96.22;96792.64;108531;1278;50341;-85
2023/04/21 00:18:08;;;;;;;;;;;;;;;7.28;96.51;96792.98;108549;1282;22518;-85
2023/04/21 00:20:35;;;;;;;;;;;;;;;7.29;96.37;96787.39;108606;1282;23238;-85
2023/04/21 00:23:03;;;;;;;;;;;;;;;7.30;96.30;96788.24;108563;1282;25418;-85
2023/04/21 00:25:30;;;;;;;;;;;;;;;7.32;96.41;96790.11;108509;1282;31254;-84
2023/04/21 00:27:57;;;;;;;;;;;;;;;7.33;96.32;96788.59;108540;1282;22507;-85
2023/04/21 00:30:25;;;;;;;;;;;;;;;7.34;96.17;96791.73;108593;1282;22553;-85
2023/04/21 00:32:52;;;;;;;;;;;;;;;7.34;96.12;96787.98;108561;1282;22523;-85
2023/04/21 00:35:19;;;;;;;;;;;;;;;7.34;96.10;96789.71;108546;1278;41840;-85
2023/04/21 00:37:48;;;;;;;;;;;;;;;7.33;96.10;96790.33;108635;1282;22654;-85
2023/04/21 00:40:16;;;;;;;;;;;;;;;7.31;96.08;96783.98;108587;1282;23286;-85
2023/04/21 00:42:43;;;;;;;;;;;;;;;7.31;96.01;96784.92;108587;1282;23823;-85
2023/04/21 00:45:11;;;;;;;;;;;;;;;7.32;95.91;96783.88;108470;1280;66059;-85
2023/04/21 00:47:38;;;;;;;;;;;;;;;7.32;95.81;96786.11;108585;1282;23215;-84
2023/04/21 00:50:06;;;;;;;;;;;;;;;7.25;95.49;96784.26;108558;1282;22511;-85
2023/04/21 00:52:34;;;;;;;;;;;;;;;7.16;95.83;96782.45;108630;1282;22554;-85
2023/04/21 00:55:01;;;;;;;;;;;;;;;7.11;96.38;96783.14;108551;1279;44819;-85
2023/04/21 00:57:31;;;;;;;;;;;;;;;7.08;96.53;96782.66;108572;1282;22540;-85
2023/04/21 00:59:58;;;;;;;;;;;;;;;7.09;96.75;96780.09;108590;1282;24036;-84
2023/04/21 01:02:27;;;;;;;;;;;;;;;7.13;96.98;96779.83;108545;1279;24349;-84
2023/04/21 01:04:54;;;;;;;;;;;;;;;7.18;97.13;96776.71;108545;1282;43422;-84
2023/04/21 01:07:22;;;;;;;;;;;;;;;7.23;97.28;96778.44;108571;1274;24379;-84
2023/04/21 01:09:49;;;;;;;;;;;;;;;7.26;97.22;96772.50;108558;1280;22514;-84
2023/04/21 01:12:16;;;;;;;;;;;;;;;7.27;97.02;96777.00;108525;1274;22734;-84
2023/04/21 01:14:43;;;;;;;;;;;;;;;7.28;96.95;96773.89;108521;1281;49129;-84
2023/04/21 01:17:11;;;;;;;;;;;;;;;7.28;97.01;96777.00;108605;1274;22522;-84
2023/04/21 01:19:39;;;;;;;;;;;;;;;7.29;97.07;96776.90;108571;1273;22543;-84
2023/04/21 01:22:09;;;;;;;;;;;;;;;7.28;97.18;96773.46;108598;1282;23746;-84
2023/04/21 01:24:38;;;;;;;;;;;;;;;7.27;97.12;96776.99;108624;1281;56614;-84
2023/04/21 01:27:08;;;;;;;;;;;;;;;7.21;97.16;96774.69;108657;1274;22529;-84
2023/04/21 01:29:36;;;;;;;;;;;;;;;7.18;97.19;96773.13;108565;1274;22513;-85
2023/04/21 01:32:04;;;;;;;;;;;;;;;7.13;97.27;96773.57;108543;1282;22515;-85
2023/04/21 01:34:32;;;;;;;;;;;;;;;7.09;97.36;96773.06;108563;1281;46040;-84
2023/04/21 01:36:59;;;;;;;;;;;;;;;7.07;97.50;96770.89;108595;1274;22700;-84
2023/04/21 01:39:26;;;;;;;;;;;;;;;7.07;97.65;96770.58;108677;1281;22516;-84
2023/04/21 01:41:57;;;;;;;;;;;;;;;7.05;97.68;96767.40;108636;1282;22557;-84
2023/04/21 01:44:25;;;;;;;;;;;;;;;6.99;97.59;96767.87;108549;1274;44208;-84
2023/04/21 01:46:52;;;;;;;;;;;;;;;6.88;97.63;96768.14;108565;1282;24203;-84
2023/04/21 01:49:19;;;;;;;;;;;;;;;6.80;98.10;96765.13;108579;1275;22529;-84
2023/04/21 01:51:49;;;;;;;;;;;;;;;6.76;98.51;96766.98;108576;1282;22536;-84
2023/04/21 01:54:16;;;;;;;;;;;;;;;6.75;98.51;96767.85;108548;1281;60164;-84
2023/04/21 01:56:44;;;;;;;;;;;;;;;6.76;98.67;96768.23;108616;1281;23146;-84
2023/04/21 01:59:11;;;;;;;;;;;;;;;6.74;98.59;96765.95;108587;1275;25143;-85
2023/04/21 02:01:38;;;;;;;;;;;;;;;6.74;98.41;96766.41;108560;1275;22815;-84
2023/04/21 02:04:05;;;;;;;;;;;;;;;6.69;98.26;96761.33;108544;1281;25234;-84
2023/04/21 02:06:33;;;;;;;;;;;;;;;6.66;98.63;96765.09;108549;1282;38578;-84
2023/04/21 02:09:00;;;;;;;;;;;;;;;6.65;98.71;96768.52;108546;1282;22578;-85
2023/04/21 02:11:27;;;;;;;;;;;;;;;6.66;98.67;96768.67;108610;1282;22504;-85
2023/04/21 02:13:55;;;;;;;;;;;;;;;6.64;98.41;96770.51;108569;1271;22860;-84
2023/04/21 02:16:24;;;;;;;;;;;;;;;6.58;97.98;96771.33;108552;1275;40498;-85
2023/04/21 02:18:52;;;;;;;;;;;;;;;6.45;97.98;96772.94;108562;1282;22528;-84
2023/04/21 02:21:20;;;;;;;;;;;;;;;6.35;98.25;96772.25;108568;1282;22494;-84
2023/04/21 02:23:47;;;;;;;;;;;;;;;6.29;98.30;96771.70;108575;1282;22986;-84
2023/04/21 02:26:14;;;;;;;;;;;;;;;6.28;98.53;96770.95;108523;1282;89873;-84
2023/04/21 02:28:42;;;;;;;;;;;;;;;6.29;98.73;96770.76;108592;1282;23127;-84
2023/04/21 02:31:09;;;;;;;;;;;;;;;6.28;98.74;96773.01;108603;1282;22508;-84
2023/04/21 02:33:36;;;;;;;;;;;;;;;6.24;98.46;96768.34;108682;1275;24191;-84
2023/04/21 02:36:05;;;;;;;;;;;;;;;6.22;98.55;96765.59;108573;1271;45741;-84
2023/04/21 02:38:32;;;;;;;;;;;;;;;6.18;98.37;96766.58;108593;1281;22543;-84
2023/04/21 02:40:59;;;;;;;;;;;;;;;6.08;98.21;96765.43;108622;1275;22774;-84
2023/04/21 02:43:26;;;;;;;;;;;;;;;6.02;98.44;96763.55;108575;1275;23490;-84
2023/04/21 02:45:54;;;;;;;;;;;;;;;5.90;98.36;96764.41;108493;1282;79630;-84
2023/04/21 02:48:22;;;;;;;;;;;;;;;5.85;98.33;96765.53;108572;1280;22703;-84
2023/04/21 02:50:49;;;;;;;;;;;;;;;5.74;97.96;96769.60;108568;1282;22542;-84
2023/04/21 02:53:16;;;;;;;;;;;;;;;5.64;98.25;96769.14;108589;1282;22507;-84
2023/04/21 02:55:43;;;;;;;;;;;;;;;5.62;98.83;96770.00;108532;1282;58673;-84
2023/04/21 02:58:11;;;;;;;;;;;;;;;5.66;99.09;96767.23;108557;1282;23290;-84
2023/04/21 03:00:39;;;;;;;;;;;;;;;5.71;99.08;96770.24;108567;1282;24881;-84
2023/04/21 03:03:06;;;;;;;;;;;;;;;5.72;98.95;96770.98;108581;1281;22512;-84
2023/04/21 03:05:33;;;;;;;;;;;;;;;5.73;98.91;96774.09;108525;1277;54863;-84
2023/04/21 03:08:01;;;;;;;;;;;;;;;5.77;98.88;96771.00;108577;1275;22554;-84
2023/04/21 03:10:28;;;;;;;;;;;;;;;5.79;98.82;96775.88;108576;1282;24252;-84
2023/04/21 03:12:55;;;;;;;;;;;;;;;5.81;98.82;96773.48;108556;1283;22504;-84
2023/04/21 03:15:23;;;;;;;;;;;;;;;5.84;98.74;96773.72;108531;1282;69818;-84
2023/04/21 03:17:50;;;;;;;;;;;;;;;5.87;98.55;96776.70;108565;1282;24741;-84
2023/04/21 03:20:17;;;;;;;;;;;;;;;5.91;98.75;96777.47;108558;1279;22504;-84
2023/04/21 03:22:45;;;;;;;;;;;;;;;5.96;99.01;96775.12;108581;1282;22787;-84
2023/04/21 03:25:12;;;;;;;;;;;;;;;6.00;99.07;96771.89;108498;1282;41359;-84
2023/04/21 03:27:39;;;;;;;;;;;;;;;6.03;98.91;96772.98;108574;1282;22550;-84
2023/04/21 03:30:07;;;;;;;;;;;;;;;6.00;98.33;96773.21;108578;1282;22661;-83
2023/04/21 03:32:35;;;;;;;;;;;;;;;5.98;98.00;96776.61;108552;1275;25259;-84
2023/04/21 03:35:02;;;;;;;;;;;;;;;5.97;97.93;96774.65;108558;1282;48518;-84
2023/04/21 03:37:30;;;;;;;;;;;;;;;5.94;97.61;96775.63;108588;1278;22695;-84
2023/04/21 03:39:57;;;;;;;;;;;;;;;5.95;97.62;96774.79;108584;1278;22506;-84
2023/04/21 03:42:25;;;;;;;;;;;;;;;5.93;97.43;96777.04;108574;1281;22515;-84
2023/04/21 03:44:52;;;;;;;;;;;;;;;5.95;97.77;96777.05;108540;1268;44721;-84
2023/04/21 03:47:20;;;;;;;;;;;;;;;6.00;97.70;96778.10;108516;1279;25456;-84
2023/04/21 03:49:48;;;;;;;;;;;;;;;6.04;97.87;96774.36;108564;1282;22512;-85
2023/04/21 03:52:16;;;;;;;;;;;;;;;6.08;97.80;96778.69;108556;1282;24310;-84
2023/04/21 03:54:43;;;;;;;;;;;;;;;6.13;97.77;96781.58;108582;1282;66260;-84
2023/04/21 03:57:10;;;;;;;;;;;;;;;6.17;97.50;96781.77;108560;1277;22507;-84
2023/04/21 03:59:38;;;;;;;;;;;;;;;6.21;97.44;96781.52;108562;1275;22515;-84
2023/04/21 04:02:05;;;;;;;;;;;;;;;6.27;97.57;96781.99;108530;1282;24308;-84
2023/04/21 04:04:33;;;;;;;;;;;;;;;6.34;97.54;96782.89;108508;1282;55188;-84
2023/04/21 04:07:00;;;;;;;;;;;;;;;6.40;97.47;96785.73;108581;1280;22579;-84
2023/04/21 04:09:28;;;;;;;;;;;;;;;6.48;97.54;96783.73;108552;1271;22547;-84
2023/04/21 04:11:56;;;;;;;;;;;;;;;6.57;97.10;96788.23;108530;1282;22615;-84
2023/04/21 04:14:23;;;;;;;;;;;;;;;6.64;96.96;96786.56;108559;1281;59728;-84
2023/04/21 04:16:51;;;;;;;;;;;;;;;6.73;96.74;96791.45;108616;1282;22715;-84
2023/04/21 04:19:18;;;;;;;;;;;;;;;6.87;97.03;96795.54;108615;1281;23674;-85
2023/04/21 04:21:46;;;;;;;;;;;;;;;7.03;96.81;96794.95;108552;1280;22510;-84
2023/04/21 04:24:14;;;;;;;;;;;;;;;7.17;96.65;96797.80;108475;1282;85665;-85
2023/04/21 04:26:43;;;;;;;;;;;;;;;7.53;97.31;96796.76;108549;1279;23904;-85
2023/04/21 04:29:12;;;;;;;;;;;;;;;8.22;97.86;96797.77;108470;1281;145384;-85
2023/04/21 04:31:40;;;;;;;;;;;;;;;9.08;97.97;96798.88;108632;1275;22566;-85
2023/04/21 04:34:08;;;;;;;;;;;;;;;9.94;96.93;96800.98;108535;1281;22531;-85
2023/04/21 04:36:35;;;;;;;;;;;;;;;10.71;93.26;96801.14;108604;1276;23602;-85
2023/04/21 04:39:04;;;;;;;;;;;;;;;11.20;91.49;96800.92;108617;1271;22510;-85
2023/04/21 04:41:32;;;;;;;;;;;;;;;11.85;90.29;96803.23;108619;1275;23777;-85
2023/04/21 04:44:00;;;;;;;;;;;;;;;12.45;88.69;96803.95;108560;1282;22503;-85
2023/04/21 04:46:27;;;;;;;;;;;;;;;13.15;86.91;96803.06;108487;1282;65795;-85
2023/04/21 04:48:55;;;;;;;;;;;;;;;13.57;83.26;96799.60;108589;1280;22562;-85
2023/04/21 04:51:22;;;;;;;;;;;;;;;13.94;82.06;96806.77;108566;1282;22537;-85
2023/04/21 04:53:50;;;;;;;;;;;;;;;14.47;81.25;96806.43;108568;1282;24192;-85
2023/04/21 04:56:18;;;;;;;;;;;;;;;14.99;79.17;96804.15;108459;1282;71802;-85
2023/04/21 04:58:45;;;;;;;;;;;;;;;15.49;76.97;96809.65;108633;1279;22555;-85
2023/04/21 05:01:13;;;;;;;;;;;;;;;15.84;75.37;96810.33;108590;1282;22551;-86
2023/04/21 05:03:41;;;;;;;;;;;;;;;16.04;73.41;96806.52;108558;1282;22515;-85
2023/04/21 05:06:09;;;;;;;;;;;;;;;16.39;72.86;96808.41;108496;1265;58051;-85
2023/04/21 05:08:36;;;;;;;;;;;;;;;16.96;72.51;96812.74;108589;1282;22513;-86
2023/04/21 05:11:04;;;;;;;;;;;;;;;17.56;71.29;96814.03;108564;1276;22700;-86
2023/04/21 05:13:31;;;;;;;;;;;;;;;18.14;70.45;96817.48;108549;1275;22525;-86
2023/04/21 05:16:00;;;;;;;;;;;;;;;18.76;69.04;96815.41;108549;1279;31982;-86
2023/04/21 05:18:28;;;;;;;;;;;;;;;19.20;67.15;96814.77;108580;1282;23724;-86
2023/04/21 05:20:56;;;;;;;;;;;;;;;19.67;65.99;96814.75;108637;1278;23228;-86
2023/04/21 05:23:23;;;;;;;;;;;;;;;20.08;64.85;96815.39;108542;1280;25436;-86
2023/04/21 05:25:51;;;;;;;;;;;;;;;20.52;62.88;96813.00;108542;1271;53541;-86
2023/04/21 05:28:18;;;;;;;;;;;;;;;20.68;61.08;96812.19;108589;1282;22511;-86
2023/04/21 05:30:46;;;;;;;;;;;;;;;21.11;60.96;96812.90;108570;1282;24206;-87
2023/04/21 05:33:14;;;;;;;;;;;;;;;21.77;60.45;96811.23;108544;1282;23307;-87
2023/04/21 05:35:41;;;;;;;;;;;;;;;22.66;59.47;96801.41;108533;1282;45190;-87
2023/04/21 05:38:08;;;;;;;;;;;;;;;23.30;58.42;96800.11;108549;1279;22757;-87
2023/04/21 05:40:36;;;;;;;;;;;;;;;23.99;56.28;96799.13;108597;1282;22516;-87
2023/04/21 05:43:03;;;;;;;;;;;;;;;24.74;55.69;96800.94;108550;1280;22533;-87
2023/04/21 05:45:30;;;;;;;;;;;;;;;25.27;53.13;96798.37;108521;1282;57952;-87
2023/04/21 05:47:58;;;;;;;;;;;;;;;25.54;53.29;96800.85;108568;1282;22519;-87
2023/04/21 05:50:32;;;;;;;;;;;;;;;26.12;52.42;96806.67;108558;1282;22620;-87
2023/04/21 05:53:00;;;;;;;;;;;;;;;26.79;51.49;96802.94;108577;1282;22513;-86
2023/04/21 05:55:27;;;;;;;;;;;;;;;27.07;49.46;96804.30;108483;1282;52670;-86
2023/04/21 05:57:54;;;;;;;;;;;;;;;26.89;48.67;96803.39;108607;1281;23657;-86
2023/04/21 06:00:22;;;;;;;;;;;;;;;27.40;48.54;96800.27;108574;1282;22548;-86
2023/04/21 06:02:49;;;;;;;;;;;;;;;27.72;47.09;96797.20;108613;1278;22514;-86
2023/04/21 06:05:17;;;;;;;;;;;;;;;27.66;46.82;96797.34;108549;1279;30762;-85
2023/04/21 06:07:45;;;;;;;;;;;;;;;28.02;46.76;96795.70;108597;1282;22512;-85
2023/04/21 06:10:13;;;;;;;;;;;;;;;28.33;45.29;96796.08;108550;1282;22822;-85
2023/04/21 06:12:40;;;;;;;;;;;;;;;28.65;44.64;96796.98;108569;1282;22531;-85
2023/04/21 06:15:09;;;;;;;;;;;;;;;28.17;41.70;96797.66;108521;1282;53976;-85
2023/04/21 06:17:36;;;;;;;;;;;;;;;27.62;42.26;96802.91;108558;1282;24328;-85
2023/04/21 06:20:04;;;;;;;;;;;;;;;28.13;42.10;96806.39;108546;1282;22686;-85
2023/04/21 06:22:32;;;;;;;;;;;;;;;28.55;40.90;96805.27;108619;1281;23339;-85
2023/04/21 06:24:59;;;;;;;;;;;;;;;27.99;37.35;96803.23;108547;1282;32979;-83
2023/04/21 06:27:27;;;;;;;;;;;;;;;26.94;37.10;96806.55;108568;1278;24173;-82
2023/04/21 06:29:54;;;;;;;;;;;;;;;26.55;37.57;96805.75;108557;1271;25439;-82
2023/04/21 06:32:22;;;;;;;;;;;;;;;26.80;39.19;96803.35;108553;1282;24139;-82
2023/04/21 06:34:49;;;;;;;;;;;;;;;27.51;38.39;96799.67;108507;1282;56230;-82
2023/04/21 06:37:17;;;;;;;;;;;;;;;28.13;39.06;96799.20;108579;1282;24105;-82
2023/04/21 06:39:46;;;;;;;;;;;;;;;29.26;37.89;96799.35;108543;1271;22535;-83
2023/04/21 06:42:14;;;;;;;;;;;;;;;28.81;34.99;96801.16;108592;1282;22534;-83
2023/04/21 06:44:41;;;;;;;;;;;;;;;27.82;34.61;96802.73;108514;1282;55778;-83
2023/04/21 06:47:08;;;;;;;;;;;;;;;27.51;36.42;96805.52;108592;1282;23015;-83
2023/04/21 06:49:36;;;;;;;;;;;;;;;28.17;36.09;96803.98;108543;1282;22538;-83
2023/04/21 06:52:03;;;;;;;;;;;;;;;28.47;35.30;96803.08;108556;1282;22540;-84
2023/04/21 06:54:31;;;;;;;;;;;;;;;28.50;35.66;96801.98;108513;1276;47640;-83
2023/04/21 06:56:58;;;;;;;;;;;;;;;29.20;36.48;96798.65;108592;1282;23388;-83
2023/04/21 06:59:26;;;;;;;;;;;;;;;30.24;36.38;96797.05;108598;1279;22514;-84
2023/04/21 07:01:53;;;;;;;;;;;;;;;31.29;35.88;96795.48;108554;1282;22610;-83
2023/04/21 07:04:20;;;;;;;;;;;;;;;31.27;32.59;96798.60;108562;1281;49816;-83
2023/04/21 07:06:48;;;;;;;;;;;;;;;30.98;33.77;96799.02;108563;1282;23559;-83
2023/04/21 07:09:15;;;;;;;;;;;;;;;30.96;32.32;96795.05;108602;1282;22508;-83
2023/04/21 07:11:42;;;;;;;;;;;;;;;31.12;32.40;96797.28;108599;1280;22531;-83
2023/04/21 07:14:10;;;;;;;;;;;;;;;30.85;31.53;96792.18;108531;1282;24987;-84
2023/04/21 07:16:37;;;;;;;;;;;;;;;31.20;33.19;96794.55;108572;1282;22928;-84
2023/04/21 07:19:04;;;;;;;;;;;;;;;31.92;32.63;96790.77;108575;1280;25400;-83
2023/04/21 07:21:34;;;;;;;;;;;;;;;32.43;31.24;96788.52;108540;1282;23775;-83
2023/04/21 07:24:02;;;;;;;;;;;;;;;31.81;30.23;96789.73;108571;1282;24203;-83
2023/04/21 07:26:30;;;;;;;;;;;;;;;32.17;31.33;96786.39;108521;1282;34447;-83
2023/04/21 07:28:57;;;;;;;;;;;;;;;32.82;31.42;96784.30;108569;1282;22516;-83
2023/04/21 07:31:25;;;;;;;;;;;;;;;33.77;30.87;96783.32;108567;1282;22546;-83
2023/04/21 07:33:52;;;;;;;;;;;;;;;34.37;31.09;96780.29;108569;1281;22497;-83
2023/04/21 07:36:19;;;;;;;;;;;;;;;34.56;28.96;96783.45;108508;1274;28812;-83
2023/04/21 07:38:47;;;;;;;;;;;;;;;33.49;28.49;96782.02;108542;1282;23528;-83
2023/04/21 07:41:14;;;;;;;;;;;;;;;33.18;29.26;96780.36;108621;1281;24224;-83
2023/04/21 07:43:42;;;;;;;;;;;;;;;33.92;29.27;96780.08;108575;1282;22516;-83
2023/04/21 07:46:09;;;;;;;;;;;;;;;33.89;26.55;96781.64;108495;1282;65687;-83
2023/04/21 07:48:36;;;;;;;;;;;;;;;32.87;25.25;96776.36;108567;1280;22526;-83
2023/04/21 07:51:04;;;;;;;;;;;;;;;32.33;25.70;96780.52;108528;1280;22549;-83
2023/04/21 07:53:31;;;;;;;;;;;;;;;31.64;25.82;96779.39;108568;1282;22681;-83
2023/04/21 07:55:59;;;;;;;;;;;;;;;31.89;27.14;96779.11;108522;1282;39425;-83
2023/04/21 07:58:26;;;;;;;;;;;;;;;32.00;25.23;96772.79;108572;1281;22826;-83
2023/04/21 08:00:54;;;;;;;;;;;;;;;32.48;26.49;96771.30;108561;1282;22565;-82
2023/04/21 08:03:21;;;;;;;;;;;;;;;33.25;25.89;96772.77;108551;1279;23833;-83
2023/04/21 08:05:49;;;;;;;;;;;;;;;33.04;25.61;96771.75;108494;1282;50983;-83
2023/04/21 08:08:19;;;;;;;;;;;;;;;33.86;26.63;96771.23;108553;1282;22473;-82
2023/04/21 08:10:46;;;;;;;;;;;;;;;34.74;26.20;96773.40;108529;1282;24253;-83
2023/04/21 08:13:13;;;;;;;;;;;;;;;34.81;23.64;96772.82;108554;1282;22542;-83
2023/04/21 08:15:41;;;;;;;;;;;;;;;33.96;24.17;96772.84;108531;1280;63385;-82
2023/04/21 08:18:08;;;;;;;;;;;;;;;33.85;24.15;96771.60;108567;1282;22579;-82
2023/04/21 08:20:36;;;;;;;;;;;;;;;33.69;23.28;96775.95;108553;1282;22477;-82
2023/04/21 08:23:03;;;;;;;;;;;;;;;33.17;21.86;96773.53;108590;1282;22538;-83
2023/04/21 08:25:30;;;;;;;;;;;;;;;32.06;22.85;96775.59;108501;1279;50231;-82
2023/04/21 08:27:58;;;;;;;;;;;;;;;32.06;25.34;96771.97;108570;1278;22521;-82
2023/04/21 08:30:26;;;;;;;;;;;;;;;33.33;25.10;96771.10;108567;1282;23259;-82
2023/04/21 08:32:53;;;;;;;;;;;;;;;34.31;25.06;96766.82;108555;1282;22553;-82
2023/04/21 08:35:21;;;;;;;;;;;;;;;35.19;24.39;96772.52;108496;1282;37461;-82
2023/04/21 08:37:48;;;;;;;;;;;;;;;35.32;23.24;96768.77;108598;1281;25239;-82
2023/04/21 08:40:15;;;;;;;;;;;;;;;35.64;23.96;96771.94;108571;1279;24830;-82
2023/04/21 08:42:43;;;;;;;;;;;;;;;35.63;22.88;96767.48;108561;1282;25429;-82
2023/04/21 08:45:11;;;;;;;;;;;;;;;35.39;22.94;96770.65;108491;1282;65799;-82
2023/04/21 08:47:39;;;;;;;;;;;;;;;34.99;21.31;96771.54;108537;1282;22471;-81
2023/04/21 08:50:11;;;;;;;;;;;;;;;33.70;22.81;96769.09;108542;1282;22606;-82
2023/04/21 08:52:38;;;;;;;;;;;;;;;34.24;23.86;96768.17;108594;1276;23264;-81
2023/04/21 08:55:07;;;;;;;;;;;;;;;34.74;22.92;96768.66;108482;1281;39807;-81
2023/04/21 08:57:34;;;;;;;;;;;;;;;34.58;23.27;96764.83;108545;1279;22539;-81
2023/04/21 09:00:02;;;;;;;;;;;;;;;34.49;23.33;96761.52;108551;1282;22519;-81
2023/04/21 09:02:31;;;;;;;;;;;;;;;34.67;23.88;96759.80;108559;1282;22576;-81
2023/04/21 09:04:58;;;;;;;;;;;;;;;34.51;23.87;96757.62;108526;1282;31968;-81
2023/04/21 09:07:33;;;;;;;;;;;;;;;33.99;22.09;96755.45;108600;1282;22573;-81
2023/04/21 09:10:00;;;;;;;;;;;;;;;32.39;22.48;96753.82;108554;1278;22624;-81
2023/04/21 09:12:28;;;;;;;;;;;;;;;31.60;23.19;96752.20;108593;1279;25418;-81
2023/04/21 09:14:57;;;;;;;;;;;;;;;30.79;22.78;96753.73;108509;1282;38222;-81
2023/04/21 09:17:30;;;;;;;;;;;;;;;28.80;23.65;96750.23;108562;1282;22786;-80
2023/04/21 09:20:11;;;;;;;;;;;;;;;26.80;24.79;96752.33;108554;1282;22512;-81
2023/04/21 09:22:38;;;;;;;;;;;;;;;25.91;26.89;96750.76;108590;1279;23270;-80
2023/04/21 09:25:06;;;;;;;;;;;;;;;25.49;27.63;96747.52;108519;1282;37129;-80
2023/04/21 09:27:35;;;;;;;;;;;;;;;24.94;27.98;96744.05;108537;1280;22543;-80
2023/04/21 09:30:03;;;;;;;;;;;;;;;24.22;29.12;96740.38;108534;1282;22530;-80
2023/04/21 09:32:35;;;;;;;;;;;;;;;23.96;29.31;96740.96;108519;1282;22623;-80
2023/04/21 09:35:02;;;;;;;;;;;;;;;22.34;29.54;96740.01;108513;1282;48333;-80
2023/04/21 09:37:33;;;;;;;;;;;;;;;20.78;32.86;96740.48;108552;1281;22507;-80
2023/04/21 09:40:00;;;;;;;;;;;;;;;20.82;34.32;96742.45;108625;1279;22514;-79
2023/04/21 09:42:29;;;;;;;;;;;;;;;21.34;33.63;96735.54;108567;1282;24229;-80
2023/04/21 09:44:59;;;;;;;;;;;;;;;21.34;32.65;96739.15;108486;1282;36515;-80
2023/04/21 09:47:29;;;;;;;;;;;;;;;21.00;32.24;96741.91;108551;1275;24279;-80
2023/04/21 09:49:57;;;;;;;;;;;;;;;20.54;32.23;96734.69;108562;1282;22636;-80
2023/04/21 09:52:28;;;;;;;;;;;;;;;19.63;32.62;96736.62;108574;1282;22566;-80
2023/04/21 09:54:57;;;;;;;;;;;;;;;19.08;34.09;96735.55;108548;1282;42167;-80
2023/04/21 09:57:25;;;;;;;;;;;;;;;19.36;34.78;96732.05;108541;1282;23263;-80
2023/04/21 09:59:55;;;;;;;;;;;;;;;19.71;35.10;96730.52;108520;1278;25426;-80
2023/04/21 10:02:24;;;;;;;;;;;;;;;19.91;34.50;96724.80;108577;1282;22502;-79
2023/04/21 10:04:52;;;;;;;;;;;;;;;19.88;34.21;96722.39;108465;1282;51933;-80
2023/04/21 10:07:19;;;;;;;;;;;;;;;19.98;34.96;96718.03;108618;1281;22721;-80
2023/04/21 10:09:50;;;;;;;;;;;;;;;20.19;34.07;96715.23;108529;1276;22526;-80
2023/04/21 10:12:18;;;;;;;;;;;;;;;20.07;32.49;96711.63;108544;1282;22535;-80
2023/04/21 10:14:45;;;;;;;;;;;;;;;19.77;31.98;96712.80;108541;1281;36563;-80
2023/04/21 10:17:12;;;;;;;;;;;;;;;19.16;31.95;96711.48;108546;1282;22543;-80
2023/04/21 10:19:48;;;;;;;;;;;;;;;18.76;32.71;96719.43;108537;1282;22616;-80
2023/04/21 10:22:25;;;;;;;;;;;;;;;18.31;32.75;96718.38;108583;1275;24861;-80
2023/04/21 10:24:54;;;;;;;;;;;;;;;18.09;33.20;96715.60;108515;1282;46642;-80
2023/04/21 10:27:31;;;;;;;;;;;;;;;17.91;33.06;96715.42;108550;1282;24208;-80
2023/04/21 10:29:58;;;;;;;;;;;;;;;17.74;33.91;96715.94;108536;1280;22512;-80
2023/04/21 10:32:40;;;;;;;;;;;;;;;17.50;34.08;96710.53;108567;1276;23795;-80
2023/04/21 10:35:10;;;;;;;;;;;;;;;17.28;35.59;96714.55;108547;1282;46999;-80
2023/04/21 10:37:39;;;;;;;;;;;;;;;17.36;35.71;96714.45;108569;1277;22556;-80
2023/04/21 10:40:28;;;;;;;;;;;;;;;17.45;35.08;96708.25;108569;1274;22519;-80
2023/04/21 10:42:56;;;;;;;;;;;;;;;17.74;35.73;96706.15;108580;1277;23192;-80
2023/04/21 10:45:30;;;;;;;;;;;;;;;18.19;34.95;96703.45;108520;1282;30407;-81
2023/04/21 10:47:58;;;;;;;;;;;;;;;18.59;35.08;96706.33;108593;1282;22509;-80
2023/04/21 10:50:28;;;;;;;;;;;;;;;18.94;35.00;96700.95;108569;1282;24990;-80
2023/04/21 10:52:57;;;;;;;;;;;;;;;19.10;34.88;96700.21;108553;1281;22501;-80
2023/04/21 10:55:26;;;;;;;;;;;;;;;19.12;33.18;96700.67;108538;1276;52781;-80
2023/04/21 10:57:53;;;;;;;;;;;;;;;18.75;32.94;96699.75;108621;1278;25892;-80
2023/04/21 11:00:22;;;;;;;;;;;;;;;18.64;32.02;96696.42;108573;1282;23740;-80
2023/04/21 11:02:57;;;;;;;;;;;;;;;18.54;32.23;96694.48;108628;1276;22565;-80
2023/04/21 11:05:28;;;;;;;;;;;;;;;18.62;32.14;96699.88;108578;1281;26997;-80
2023/04/21 11:08:02;;;;;;;;;;;;;;;18.80;33.15;96695.54;108534;1274;22514;-80
2023/04/21 11:10:40;;;;;;;;;;;;;;;19.11;32.30;96686.79;108550;1276;22515;-80
2023/04/21 11:13:08;;;;;;;;;;;;;;;18.91;32.20;96687.90;108495;1282;23718;-80
2023/04/21 11:15:35;;;;;;;;;;;;;;;19.06;33.36;96693.18;108520;1282;29047;-80
2023/04/21 11:18:03;;;;;;;;;;;;;;;19.35;33.51;96692.79;108538;1274;25252;-80
2023/04/21 11:20:31;;;;;;;;;;;;;;;19.59;33.12;96685.55;108561;1281;25268;-80
2023/04/21 11:22:58;;;;;;;;;;;;;;;19.82;33.12;96684.46;108557;1273;22539;-80
2023/04/21 11:25:26;;;;;;;;;;;;;;;19.67;31.75;96683.19;108514;1281;45727;-81
2023/04/21 11:27:54;;;;;;;;;;;;;;;19.34;31.58;96685.06;108534;1279;23088;-81
2023/04/21 11:30:30;;;;;;;;;;;;;;;19.31;32.36;96687.52;108517;1282;22535;-81
2023/04/21 11:32:57;;;;;;;;;;;;;;;19.22;31.81;96688.89;108629;1280;25284;-81
2023/04/21 11:35:25;;;;;;;;;;;;;;;18.93;31.54;96683.88;108504;1277;35142;-80
2023/04/21 11:37:54;;;;;;;;;;;;;;;18.86;32.63;96685.32;108516;1282;25178;-81
2023/04/21 11:40:21;;;;;;;;;;;;;;;18.93;32.95;96680.96;108555;1277;23800;-81
2023/04/21 11:42:49;;;;;;;;;;;;;;;18.66;29.85;96678.13;108590;1278;23703;-81
2023/04/21 11:45:17;;;;;;;;;;;;;;;18.08;31.40;96680.39;108481;1277;51103;-81
2023/04/21 11:47:45;;;;;;;;;;;;;;;17.66;31.21;96686.61;108568;1276;22680;-81
2023/04/21 11:50:28;;;;;;;;;;;;;;;17.26;31.16;96685.73;108522;1282;25411;-81
2023/04/21 11:52:56;;;;;;;;;;;;;;;16.95;31.93;96678.81;108533;1274;22504;-81
2023/04/21 11:55:23;;;;;;;;;;;;;;;16.89;31.79;96672.95;108489;1282;42064;-81
2023/04/21 11:57:50;;;;;;;;;;;;;;;16.94;32.16;96672.79;108523;1282;22746;-81
2023/04/21 12:00:19;;;;;;;;;;;;;;;17.07;32.58;96663.54;108564;1281;23650;-81
2023/04/21 12:02:53;;;;;;;;;;;;;;;17.28;32.85;96664.65;108548;1282;22506;-81
2023/04/21 12:05:21;;;;;;;;;;;;;;;17.34;32.33;96665.52;108499;1282;42797;-81
2023/04/21 12:07:50;;;;;;;;;;;;;;;17.25;31.66;96666.05;108510;1281;22527;-81
2023/04/21 12:10:18;;;;;;;;;;;;;;;17.43;33.12;96659.25;108608;1281;22515;-81
2023/04/21 12:12:46;;;;;;;;;;;;;;;17.71;32.32;96652.90;108508;1280;22545;-81
2023/04/21 12:15:18;;;;;;;;;;;;;;;17.79;32.51;96648.09;108491;1282;58909;-81
2023/04/21 12:17:46;;;;;;;;;;;;;;;17.90;32.17;96647.20;108549;1282;22539;-81
2023/04/21 12:20:16;;;;;;;;;;;;;;;17.88;32.55;96655.69;108537;1282;22550;-81
2023/04/21 12:22:43;;;;;;;;;;;;;;;18.04;34.06;96654.02;108597;1282;23378;-81
2023/04/21 12:25:11;;;;;;;;;;;;;;;18.32;34.68;96646.98;108501;1282;47232;-81
2023/04/21 12:27:46;;;;;;;;;;;;;;;18.61;34.76;96640.98;108506;1282;24317;-81
2023/04/21 12:30:14;;;;;;;;;;;;;;;18.81;34.44;96638.84;108513;1279;22632;-81
2023/04/21 12:32:41;;;;;;;;;;;;;;;18.97;34.58;96637.59;108549;1282;22537;-80
2023/04/21 12:35:10;;;;;;;;;;;;;;;19.09;34.59;96634.23;108514;1282;43327;-81
2023/04/21 12:37:37;;;;;;;;;;;;;;;18.90;33.85;96633.36;108540;1282;22557;-81
2023/04/21 12:40:06;;;;;;;;;;;;;;;18.63;34.26;96632.22;108566;1273;23824;-80
2023/04/21 12:42:34;;;;;;;;;;;;;;;18.82;35.34;96633.75;108585;1281;22565;-81
2023/04/21 12:45:01;;;;;;;;;;;;;;;19.01;33.88;96631.10;108482;1276;46134;-81